Map

Track Data

SID SEASON NUMBER BASIN SUBBASIN NAME ISO_TIME NATURE LAT LON WMO_WIND WMO_PRES WMO_AGENCY TRACK_TYPE DIST2LAND LANDFALL IFLAG USA_AGENCY USA_ATCF_ID USA_LAT USA_LON USA_RECORD USA_STATUS USA_WIND USA_PRES USA_SSHS USA_R34_NE USA_R34_SE USA_R34_SW USA_R34_NW USA_R50_NE USA_R50_SE USA_R50_SW USA_R50_NW USA_R64_NE USA_R64_SE USA_R64_SW USA_R64_NW USA_POCI USA_ROCI USA_RMW USA_EYE TOKYO_LAT TOKYO_LON TOKYO_GRADE TOKYO_WIND TOKYO_PRES TOKYO_R50_DIR TOKYO_R50_LONG TOKYO_R50_SHORT TOKYO_R30_DIR TOKYO_R30_LONG TOKYO_R30_SHORT TOKYO_LAND CMA_LAT CMA_LON CMA_CAT CMA_WIND CMA_PRES HKO_LAT HKO_LON HKO_CAT HKO_WIND HKO_PRES NEWDELHI_LAT NEWDELHI_LON NEWDELHI_GRADE NEWDELHI_WIND NEWDELHI_PRES NEWDELHI_CI NEWDELHI_DP NEWDELHI_POCI REUNION_LAT REUNION_LON REUNION_TYPE REUNION_WIND REUNION_PRES REUNION_TNUM REUNION_CI REUNION_RMW REUNION_R34_NE REUNION_R34_SE REUNION_R34_SW REUNION_R34_NW REUNION_R50_NE REUNION_R50_SE REUNION_R50_SW REUNION_R50_NW REUNION_R64_NE REUNION_R64_SE REUNION_R64_SW REUNION_R64_NW BOM_LAT BOM_LON BOM_TYPE BOM_WIND BOM_PRES BOM_TNUM BOM_CI BOM_RMW BOM_R34_NE BOM_R34_SE BOM_R34_SW BOM_R34_NW BOM_R50_NE BOM_R50_SE BOM_R50_SW BOM_R50_NW BOM_R64_NE BOM_R64_SE BOM_R64_SW BOM_R64_NW BOM_ROCI BOM_POCI BOM_EYE BOM_POS_METHOD BOM_PRES_METHOD NADI_LAT NADI_LON NADI_CAT NADI_WIND NADI_PRES WELLINGTON_LAT WELLINGTON_LON WELLINGTON_WIND WELLINGTON_PRES DS824_LAT DS824_LON DS824_STAGE DS824_WIND DS824_PRES TD9636_LAT TD9636_LON TD9636_STAGE TD9636_WIND TD9636_PRES TD9635_LAT TD9635_LON TD9635_WIND TD9635_PRES TD9635_ROCI NEUMANN_LAT NEUMANN_LON NEUMANN_CLASS NEUMANN_WIND NEUMANN_PRES MLC_LAT MLC_LON MLC_CLASS MLC_WIND MLC_PRES USA_GUST BOM_GUST BOM_GUST_PER REUNION_GUST REUNION_GUST_PER USA_SEAHGT USA_SEARAD_NE USA_SEARAD_SE USA_SEARAD_SW USA_SEARAD_NW STORM_SPEED STORM_DIR
1962274N14256 1962 89 EP MM DOREEN 1962-10-01 00:00:00 TS 13.9000 -104.000 75 hurdat_epa main 482 482 O________OO___ hurdat_epa EP091962 13.9000 -104.000 HU 75 1 13.9000 -104.000 TC 75 13.9000 -104.000 4 6 278
1962274N14256 1962 89 EP MM DOREEN 1962-10-01 03:00:00 TS 13.9417 -104.301 main 493 486 P________PP___ EP091962 13.9326 -104.298 HU 75 1 13.9326 -104.298 TC 75 13.9785 -104.316 4 6 281
1962274N14256 1962 89 EP MM DOREEN 1962-10-01 06:00:00 TS 14.0131 -104.605 75 hurdat_epa main 493 486 O________OP___ hurdat_epa EP091962 14.0000 -104.600 HU 75 1 14.0000 -104.600 TC 75 14.0654 -104.625 4 6 288
1962274N14256 1962 89 EP MM DOREEN 1962-10-01 09:00:00 TS 14.1359 -104.910 main 493 479 P________PP___ EP091962 14.1275 -104.907 HU 75 1 14.1275 -104.907 TC 75 14.1696 -104.922 4 6 296
1962274N14256 1962 89 EP MM DOREEN 1962-10-01 12:00:00 TS 14.3000 -105.200 75 hurdat_epa main 483 471 O________OO___ hurdat_epa EP091962 14.3000 -105.200 HU 75 1 14.3000 -105.200 TC 75 14.3000 -105.200 4 6 303
1962274N14256 1962 89 EP MM DOREEN 1962-10-01 15:00:00 TS 14.4866 -105.463 main 475 465 P________PP___ EP091962 14.4925 -105.465 HU 75 1 14.4925 -105.465 TC 75 14.4630 -105.455 4 6 309
1962274N14256 1962 89 EP MM DOREEN 1962-10-01 18:00:00 TS 14.6910 -105.698 75 hurdat_epa main 466 458 O________OP___ hurdat_epa EP091962 14.7000 -105.700 HU 75 1 14.7000 -105.700 TC 75 14.6549 -105.688 4 6 313
1962274N14256 1962 89 EP MM DOREEN 1962-10-01 21:00:00 TS 14.8878 -105.906 main 458 452 P________PP___ EP091962 14.8925 -105.908 HU 75 1 14.8925 -105.908 TC 75 14.8693 -105.902 4 6 316
1962274N14256 1962 89 EP MM DOREEN 1962-10-02 00:00:00 TS 15.1000 -106.100 75 hurdat_epa main 452 441 O________OO___ hurdat_epa EP091962 15.1000 -106.100 HU 75 1 15.1000 -106.100 TC 75 15.1000 -106.100 4 6 319
1962274N14256 1962 89 EP MM DOREEN 1962-10-02 03:00:00 TS 15.3379 -106.308 main 448 439 P________PP___ EP091962 15.3425 -106.308 HU 75 1 15.3425 -106.308 TC 75 15.3194 -106.310 4 6 322
1962274N14256 1962 89 EP MM DOREEN 1962-10-02 06:00:00 TS 15.5910 -106.501 75 hurdat_epa main 439 425 O________OP___ hurdat_epa EP091962 15.6000 -106.500 HU 75 1 15.6000 -106.500 TC 75 15.5550 -106.502 4 6 325
1962274N14256 1962 89 EP MM DOREEN 1962-10-02 09:00:00 TS 15.8306 -106.672 main 430 406 P________PP___ EP091962 15.8350 -106.673 HU 75 1 15.8350 -106.673 TC 75 15.8131 -106.669 4 6 330
1962274N14256 1962 89 EP MM DOREEN 1962-10-02 12:00:00 TS 16.1000 -106.800 75 hurdat_epa main 406 384 O________OO___ hurdat_epa EP091962 16.1000 -106.800 HU 75 1 16.1000 -106.800 TC 75 16.1000 -106.800 4 6 343
1962274N14256 1962 89 EP MM DOREEN 1962-10-02 15:00:00 TS 16.4298 -106.869 main 384 348 P________PP___ EP091962 16.4350 -106.865 HU 75 1 16.4350 -106.865 TC 75 16.4090 -106.882 4 7 351
1962274N14256 1962 89 EP MM DOREEN 1962-10-02 18:00:00 TS 16.7895 -106.906 75 hurdat_epa main 348 323 O________OP___ hurdat_epa EP091962 16.8000 -106.900 HU 75 1 16.8000 -106.900 TC 75 16.7474 -106.930 4 7 353
1962274N14256 1962 89 EP MM DOREEN 1962-10-02 21:00:00 TS 17.1304 -106.953 main 330 299 P________PP___ EP091962 17.1350 -106.950 HU 75 1 17.1350 -106.950 TC 75 17.1121 -106.963 4 7 353
1962274N14256 1962 89 EP MM DOREEN 1962-10-03 00:00:00 TS 17.5000 -107.000 75 hurdat_epa main 299 269 O________OO___ hurdat_epa EP091962 17.5000 -107.000 HU 75 1 17.5000 -107.000 TC 75 17.5000 -107.000 4 8 355
1962274N14256 1962 89 EP MM DOREEN 1962-10-03 03:00:00 TS 17.9330 -107.036 main 269 238 P________PP___ EP091962 17.9425 -107.043 HU 75 1 17.9425 -107.043 TC 75 17.8950 -107.012 4 9 355
1962274N14256 1962 89 EP MM DOREEN 1962-10-03 06:00:00 TS 18.3824 -107.088 75 hurdat_epa main 238 214 O________OP___ hurdat_epa EP091962 18.4000 -107.100 HU 75 1 18.4000 -107.100 TC 75 18.3119 -107.039 4 9 353
1962274N14256 1962 89 EP MM DOREEN 1962-10-03 09:00:00 TS 18.7835 -107.149 main 214 204 P________PP___ EP091962 18.7924 -107.155 HU 75 1 18.7924 -107.155 TC 75 18.7479 -107.122 4 8 346
1962274N14256 1962 89 EP MM DOREEN 1962-10-03 12:00:00 TS 19.2000 -107.300 75 hurdat_epa main 208 204 O________OO___ hurdat_epa EP091962 19.2000 -107.300 HU 75 1 19.2000 -107.300 TC 75 19.2000 -107.300 4 10 334
1962274N14256 1962 89 EP MM DOREEN 1962-10-03 15:00:00 TS 19.6734 -107.612 main 213 213 P________PP___ EP091962 19.6924 -107.590 HU 75 1 19.6924 -107.590 TC 75 19.5971 -107.700 4 12 324
1962274N14256 1962 89 EP MM DOREEN 1962-10-03 18:00:00 TS 20.1634 -108.037 75 hurdat_epa main 240 240 O________OP___ hurdat_epa EP091962 20.2000 -108.000 HU 75 1 20.2000 -108.000 TC 75 20.0172 -108.184 4 13 316
1962274N14256 1962 89 EP MM DOREEN 1962-10-03 21:00:00 TS 20.5790 -108.554 main 285 217 P________PP___ EP091962 20.5979 -108.530 HU 75 1 20.5979 -108.530 TC 75 20.5034 -108.652 4 13 316
1962274N14256 1962 89 EP MM DOREEN 1962-10-04 00:00:00 TS 21.1000 -109.000 75 hurdat_epa main 217 137 O________OO___ hurdat_epa EP091962 21.1000 -109.000 HU 75 1 21.1000 -109.000 TC 75 21.1000 -109.000 4 15 334
1962274N14256 1962 89 EP MM DOREEN 1962-10-04 03:00:00 TS 21.8783 -109.247 main 127 52 P________PP___ EP091962 21.8823 -109.262 HU 75 1 21.8823 -109.262 TC 75 21.8625 -109.189 4 17 351
1962274N14256 1962 89 EP MM DOREEN 1962-10-04 06:00:00 TS 22.7870 -109.287 75 hurdat_epa main 45 20 O________OP___ hurdat_epa EP091962 22.8000 -109.300 HU 75 1 22.8000 -109.300 TC 75 22.7350 -109.232 4 18 3
1962274N14256 1962 89 EP MM DOREEN 1962-10-04 09:00:00 TS 23.6808 -109.152 main 32 32 P________PP___ EP091962 23.6847 -109.162 HU 75 1 23.6847 -109.162 TC 75 23.6652 -109.110 4 19 14
1962274N14256 1962 89 EP MM DOREEN 1962-10-04 12:00:00 TS 24.6000 -108.800 75 hurdat_epa main 78 0 O________OO___ hurdat_epa EP091962 24.6000 -108.800 HU 75 1 24.6000 -108.800 TC 75 24.6000 -108.800 4 20 23
1962274N14256 1962 89 EP MM DOREEN 1962-10-04 15:00:00 TS 25.5573 -108.285 main 0 0 P________PP___ EP091962 25.5723 -108.283 HU 60 0 25.5723 -108.283 TC 62 25.4969 -108.294 4 22 30
1962274N14256 1962 89 EP MM DOREEN 1962-10-04 18:00:00 TS 26.4711 -107.605 45 hurdat_epa main 0 0 O________OP___ hurdat_epa EP091962 26.5000 -107.600 TS 45 0 26.5000 -107.600 TC 50 26.3556 -107.626 4 22 37
1962274N14256 1962 89 EP MM DOREEN 1962-10-04 21:00:00 TS 27.2720 -106.828 main 0 0 P________PP___ EP091962 27.2934 -106.824 TS 35 0 27.2934 -106.824 TC 42 27.1865 -106.844 4 21 43
1962274N14256 1962 89 EP MM DOREEN 1962-10-05 00:00:00 TS 28.0000 -106.000 25 hurdat_epa main 0 O________OO___ hurdat_epa EP091962 28.0000 -106.000 TD 25 -1 28.0000 -106.000 TC 35 28.0000 -106.000 4 21 45

About IBTrACS Database

This database is a web-friendly format of International Best Track Archive for Climate Stewardship (IBTrACS), a global best track data archive curated by NOAA dating back to 1842.

Updated: 2021-11-26